sensor_id;sensor_type;location;lat;lon;timestamp;P1;durP1;ratioP1;P2;durP2;ratioP2
18503;SDS011;9381;54.244;10.074;2024-03-25T00:00:54;7.40;;;3.50;;
18503;SDS011;9381;54.244;10.074;2024-03-25T00:05:55;9.02;;;3.72;;
18503;SDS011;9381;54.244;10.074;2024-03-25T00:10:55;4.67;;;3.03;;
18503;SDS011;9381;54.244;10.074;2024-03-25T00:15:56;5.13;;;3.20;;
18503;SDS011;9381;54.244;10.074;2024-03-25T00:20:56;4.23;;;3.03;;
18503;SDS011;9381;54.244;10.074;2024-03-25T00:25:56;5.55;;;3.45;;
18503;SDS011;9381;54.244;10.074;2024-03-25T00:30:57;4.80;;;3.27;;
18503;SDS011;9381;54.244;10.074;2024-03-25T00:35:58;6.63;;;3.30;;
18503;SDS011;9381;54.244;10.074;2024-03-25T00:40:59;4.57;;;3.40;;
18503;SDS011;9381;54.244;10.074;2024-03-25T00:46:00;4.93;;;3.40;;
18503;SDS011;9381;54.244;10.074;2024-03-25T00:51:01;4.70;;;3.63;;
18503;SDS011;9381;54.244;10.074;2024-03-25T00:56:01;5.07;;;3.00;;
18503;SDS011;9381;54.244;10.074;2024-03-25T01:01:02;4.30;;;3.17;;
18503;SDS011;9381;54.244;10.074;2024-03-25T01:06:02;5.47;;;3.37;;
18503;SDS011;9381;54.244;10.074;2024-03-25T01:11:04;3.63;;;3.17;;
18503;SDS011;9381;54.244;10.074;2024-03-25T01:16:04;4.37;;;3.73;;
18503;SDS011;9381;54.244;10.074;2024-03-25T01:21:05;5.83;;;3.70;;
18503;SDS011;9381;54.244;10.074;2024-03-25T01:26:06;5.40;;;4.10;;
18503;SDS011;9381;54.244;10.074;2024-03-25T01:31:06;7.43;;;4.17;;
18503;SDS011;9381;54.244;10.074;2024-03-25T01:36:07;6.90;;;4.00;;
18503;SDS011;9381;54.244;10.074;2024-03-25T01:41:10;5.57;;;3.73;;
18503;SDS011;9381;54.244;10.074;2024-03-25T01:46:12;6.77;;;4.60;;
18503;SDS011;9381;54.244;10.074;2024-03-25T01:51:13;9.27;;;4.20;;
18503;SDS011;9381;54.244;10.074;2024-03-25T01:56:16;7.97;;;4.20;;
18503;SDS011;9381;54.244;10.074;2024-03-25T02:01:19;9.93;;;5.00;;
18503;SDS011;9381;54.244;10.074;2024-03-25T02:06:20;10.37;;;4.20;;
18503;SDS011;9381;54.244;10.074;2024-03-25T02:11:22;6.63;;;4.93;;
18503;SDS011;9381;54.244;10.074;2024-03-25T02:16:23;6.77;;;4.17;;
18503;SDS011;9381;54.244;10.074;2024-03-25T02:21:23;9.50;;;4.83;;
18503;SDS011;9381;54.244;10.074;2024-03-25T02:26:24;7.97;;;4.43;;
18503;SDS011;9381;54.244;10.074;2024-03-25T02:31:24;8.93;;;5.00;;
18503;SDS011;9381;54.244;10.074;2024-03-25T02:36:24;9.43;;;5.03;;
18503;SDS011;9381;54.244;10.074;2024-03-25T02:41:25;8.50;;;5.00;;
18503;SDS011;9381;54.244;10.074;2024-03-25T02:46:26;6.43;;;4.50;;
18503;SDS011;9381;54.244;10.074;2024-03-25T02:51:27;10.53;;;4.67;;
18503;SDS011;9381;54.244;10.074;2024-03-25T02:56:27;10.40;;;5.20;;
18503;SDS011;9381;54.244;10.074;2024-03-25T03:01:27;9.77;;;4.82;;
18503;SDS011;9381;54.244;10.074;2024-03-25T03:06:28;9.57;;;4.70;;
18503;SDS011;9381;54.244;10.074;2024-03-25T03:11:28;8.00;;;4.90;;
18503;SDS011;9381;54.244;10.074;2024-03-25T03:16:28;9.67;;;5.17;;
18503;SDS011;9381;54.244;10.074;2024-03-25T03:21:29;11.40;;;5.20;;
18503;SDS011;9381;54.244;10.074;2024-03-25T03:26:30;11.27;;;4.80;;
18503;SDS011;9381;54.244;10.074;2024-03-25T03:31:30;8.73;;;4.50;;
18503;SDS011;9381;54.244;10.074;2024-03-25T03:36:31;6.60;;;4.10;;
18503;SDS011;9381;54.244;10.074;2024-03-25T03:41:31;13.87;;;5.20;;
18503;SDS011;9381;54.244;10.074;2024-03-25T03:46:31;8.33;;;4.10;;
18503;SDS011;9381;54.244;10.074;2024-03-25T03:51:32;7.73;;;4.80;;
18503;SDS011;9381;54.244;10.074;2024-03-25T03:56:32;8.37;;;3.90;;
18503;SDS011;9381;54.244;10.074;2024-03-25T04:01:32;10.35;;;4.15;;
18503;SDS011;9381;54.244;10.074;2024-03-25T04:06:33;6.13;;;3.97;;
18503;SDS011;9381;54.244;10.074;2024-03-25T04:11:35;7.30;;;3.80;;
18503;SDS011;9381;54.244;10.074;2024-03-25T04:16:36;9.77;;;3.53;;
18503;SDS011;9381;54.244;10.074;2024-03-25T04:21:36;6.57;;;2.90;;
18503;SDS011;9381;54.244;10.074;2024-03-25T04:26:37;7.13;;;2.70;;
18503;SDS011;9381;54.244;10.074;2024-03-25T04:31:37;4.90;;;2.60;;
18503;SDS011;9381;54.244;10.074;2024-03-25T04:36:37;6.33;;;2.60;;
18503;SDS011;9381;54.244;10.074;2024-03-25T04:41:38;7.00;;;3.07;;
18503;SDS011;9381;54.244;10.074;2024-03-25T04:46:38;7.30;;;2.92;;
18503;SDS011;9381;54.244;10.074;2024-03-25T04:51:38;6.30;;;2.63;;
18503;SDS011;9381;54.244;10.074;2024-03-25T04:56:39;6.90;;;3.30;;
18503;SDS011;9381;54.244;10.074;2024-03-25T05:01:40;12.13;;;3.57;;
18503;SDS011;9381;54.244;10.074;2024-03-25T05:06:40;6.55;;;2.88;;
18503;SDS011;9381;54.244;10.074;2024-03-25T05:11:41;5.95;;;2.30;;
18503;SDS011;9381;54.244;10.074;2024-03-25T05:16:41;7.27;;;2.50;;
18503;SDS011;9381;54.244;10.074;2024-03-25T05:21:42;4.97;;;2.60;;
18503;SDS011;9381;54.244;10.074;2024-03-25T05:26:42;8.00;;;2.57;;
18503;SDS011;9381;54.244;10.074;2024-03-25T05:31:55;5.07;;;2.50;;
18503;SDS011;9381;54.244;10.074;2024-03-25T05:37:00;4.33;;;3.07;;
18503;SDS011;9381;54.244;10.074;2024-03-25T05:42:00;5.77;;;2.70;;
18503;SDS011;9381;54.244;10.074;2024-03-25T05:47:00;7.20;;;2.65;;
18503;SDS011;9381;54.244;10.074;2024-03-25T05:52:01;6.40;;;2.47;;
18503;SDS011;9381;54.244;10.074;2024-03-25T05:57:02;6.77;;;2.57;;
18503;SDS011;9381;54.244;10.074;2024-03-25T06:02:03;6.77;;;3.07;;
18503;SDS011;9381;54.244;10.074;2024-03-25T06:07:03;3.77;;;2.50;;
18503;SDS011;9381;54.244;10.074;2024-03-25T06:12:03;6.83;;;2.67;;
18503;SDS011;9381;54.244;10.074;2024-03-25T06:17:04;4.40;;;2.43;;
18503;SDS011;9381;54.244;10.074;2024-03-25T06:22:04;8.20;;;2.50;;
18503;SDS011;9381;54.244;10.074;2024-03-25T06:27:05;4.82;;;2.60;;
18503;SDS011;9381;54.244;10.074;2024-03-25T06:32:05;9.13;;;2.50;;
18503;SDS011;9381;54.244;10.074;2024-03-25T06:37:24;6.80;;;2.60;;
18503;SDS011;9381;54.244;10.074;2024-03-25T06:42:25;5.55;;;2.03;;
18503;SDS011;9381;54.244;10.074;2024-03-25T06:47:25;2.27;;;1.93;;
18503;SDS011;9381;54.244;10.074;2024-03-25T06:52:26;3.77;;;2.37;;
18503;SDS011;9381;54.244;10.074;2024-03-25T06:57:26;5.43;;;2.17;;
18503;SDS011;9381;54.244;10.074;2024-03-25T07:02:26;6.47;;;2.13;;
18503;SDS011;9381;54.244;10.074;2024-03-25T07:07:26;4.67;;;1.83;;
18503;SDS011;9381;54.244;10.074;2024-03-25T07:12:27;5.77;;;1.60;;
18503;SDS011;9381;54.244;10.074;2024-03-25T07:17:28;4.37;;;1.90;;
18503;SDS011;9381;54.244;10.074;2024-03-25T07:22:28;3.73;;;1.90;;
18503;SDS011;9381;54.244;10.074;2024-03-25T07:27:29;7.03;;;2.20;;
18503;SDS011;9381;54.244;10.074;2024-03-25T07:32:29;4.03;;;2.03;;
18503;SDS011;9381;54.244;10.074;2024-03-25T07:37:30;5.45;;;2.10;;
18503;SDS011;9381;54.244;10.074;2024-03-25T07:42:30;7.13;;;2.27;;
18503;SDS011;9381;54.244;10.074;2024-03-25T07:47:31;6.43;;;2.43;;
18503;SDS011;9381;54.244;10.074;2024-03-25T07:52:32;7.53;;;2.10;;
18503;SDS011;9381;54.244;10.074;2024-03-25T07:57:32;5.77;;;1.80;;
18503;SDS011;9381;54.244;10.074;2024-03-25T08:02:33;9.10;;;2.77;;
18503;SDS011;9381;54.244;10.074;2024-03-25T08:07:33;5.97;;;1.93;;
18503;SDS011;9381;54.244;10.074;2024-03-25T08:12:34;6.18;;;2.35;;
18503;SDS011;9381;54.244;10.074;2024-03-25T08:17:34;6.97;;;2.00;;
18503;SDS011;9381;54.244;10.074;2024-03-25T08:22:34;4.88;;;2.20;;
18503;SDS011;9381;54.244;10.074;2024-03-25T08:27:34;8.97;;;2.63;;
18503;SDS011;9381;54.244;10.074;2024-03-25T08:32:35;6.20;;;2.22;;
18503;SDS011;9381;54.244;10.074;2024-03-25T08:37:35;6.60;;;2.00;;
18503;SDS011;9381;54.244;10.074;2024-03-25T08:42:35;5.50;;;1.97;;
18503;SDS011;9381;54.244;10.074;2024-03-25T08:47:36;3.13;;;1.98;;
18503;SDS011;9381;54.244;10.074;2024-03-25T08:52:38;10.80;;;2.60;;
18503;SDS011;9381;54.244;10.074;2024-03-25T08:57:39;11.53;;;2.70;;
18503;SDS011;9381;54.244;10.074;2024-03-25T09:02:40;8.20;;;2.15;;
18503;SDS011;9381;54.244;10.074;2024-03-25T09:07:40;7.50;;;2.28;;
18503;SDS011;9381;54.244;10.074;2024-03-25T09:12:40;9.48;;;2.25;;
18503;SDS011;9381;54.244;10.074;2024-03-25T09:17:41;7.33;;;1.90;;
18503;SDS011;9381;54.244;10.074;2024-03-25T09:22:42;6.20;;;2.10;;
18503;SDS011;9381;54.244;10.074;2024-03-25T09:27:46;13.10;;;2.63;;
18503;SDS011;9381;54.244;10.074;2024-03-25T09:32:47;6.60;;;1.97;;
18503;SDS011;9381;54.244;10.074;2024-03-25T09:37:47;7.20;;;2.70;;
18503;SDS011;9381;54.244;10.074;2024-03-25T09:42:48;6.23;;;1.73;;
18503;SDS011;9381;54.244;10.074;2024-03-25T09:47:52;9.67;;;2.57;;
18503;SDS011;9381;54.244;10.074;2024-03-25T09:52:54;8.30;;;2.37;;
18503;SDS011;9381;54.244;10.074;2024-03-25T09:57:55;12.27;;;2.90;;
18503;SDS011;9381;54.244;10.074;2024-03-25T10:02:56;5.77;;;2.20;;
18503;SDS011;9381;54.244;10.074;2024-03-25T10:07:57;7.13;;;2.67;;
18503;SDS011;9381;54.244;10.074;2024-03-25T10:12:58;9.33;;;2.50;;
18503;SDS011;9381;54.244;10.074;2024-03-25T10:17:58;6.97;;;2.70;;
18503;SDS011;9381;54.244;10.074;2024-03-25T10:22:59;14.37;;;2.97;;
18503;SDS011;9381;54.244;10.074;2024-03-25T10:28:00;8.03;;;2.73;;
18503;SDS011;9381;54.244;10.074;2024-03-25T10:33:04;10.50;;;2.80;;
18503;SDS011;9381;54.244;10.074;2024-03-25T10:38:09;9.20;;;2.70;;
18503;SDS011;9381;54.244;10.074;2024-03-25T10:43:11;9.03;;;2.60;;
18503;SDS011;9381;54.244;10.074;2024-03-25T10:48:19;12.33;;;2.77;;
18503;SDS011;9381;54.244;10.074;2024-03-25T10:53:24;15.97;;;3.17;;
18503;SDS011;9381;54.244;10.074;2024-03-25T10:58:28;11.17;;;2.73;;
18503;SDS011;9381;54.244;10.074;2024-03-25T11:03:29;10.17;;;2.33;;
18503;SDS011;9381;54.244;10.074;2024-03-25T11:08:31;6.63;;;1.83;;
18503;SDS011;9381;54.244;10.074;2024-03-25T11:13:32;6.77;;;2.33;;
18503;SDS011;9381;54.244;10.074;2024-03-25T11:18:32;5.63;;;2.07;;
18503;SDS011;9381;54.244;10.074;2024-03-25T11:23:42;7.43;;;2.23;;
18503;SDS011;9381;54.244;10.074;2024-03-25T11:28:45;5.77;;;2.10;;
18503;SDS011;9381;54.244;10.074;2024-03-25T11:33:45;9.23;;;2.10;;
18503;SDS011;9381;54.244;10.074;2024-03-25T11:38:45;9.80;;;1.93;;
18503;SDS011;9381;54.244;10.074;2024-03-25T11:43:46;5.30;;;2.10;;
18503;SDS011;9381;54.244;10.074;2024-03-25T11:48:47;12.10;;;3.60;;
18503;SDS011;9381;54.244;10.074;2024-03-25T11:53:47;7.37;;;2.30;;
18503;SDS011;9381;54.244;10.074;2024-03-25T11:58:47;7.13;;;2.30;;
18503;SDS011;9381;54.244;10.074;2024-03-25T12:03:48;8.67;;;1.77;;
18503;SDS011;9381;54.244;10.074;2024-03-25T12:08:48;6.33;;;1.97;;
18503;SDS011;9381;54.244;10.074;2024-03-25T12:14:07;9.13;;;2.23;;
18503;SDS011;9381;54.244;10.074;2024-03-25T12:19:08;7.50;;;2.03;;
18503;SDS011;9381;54.244;10.074;2024-03-25T12:24:08;9.23;;;2.03;;
18503;SDS011;9381;54.244;10.074;2024-03-25T12:29:09;6.40;;;1.80;;
18503;SDS011;9381;54.244;10.074;2024-03-25T12:34:09;5.13;;;1.73;;
18503;SDS011;9381;54.244;10.074;2024-03-25T12:39:15;7.40;;;1.90;;
18503;SDS011;9381;54.244;10.074;2024-03-25T12:44:16;6.53;;;2.27;;
18503;SDS011;9381;54.244;10.074;2024-03-25T12:49:17;5.37;;;1.90;;
18503;SDS011;9381;54.244;10.074;2024-03-25T12:54:17;10.80;;;2.35;;
18503;SDS011;9381;54.244;10.074;2024-03-25T12:59:17;7.65;;;1.90;;
18503;SDS011;9381;54.244;10.074;2024-03-25T13:04:17;7.60;;;2.03;;
18503;SDS011;9381;54.244;10.074;2024-03-25T13:09:18;6.07;;;1.80;;
18503;SDS011;9381;54.244;10.074;2024-03-25T13:14:19;5.47;;;2.10;;
18503;SDS011;9381;54.244;10.074;2024-03-25T13:19:19;7.77;;;1.47;;
18503;SDS011;9381;54.244;10.074;2024-03-25T13:24:19;7.82;;;2.05;;
18503;SDS011;9381;54.244;10.074;2024-03-25T13:29:20;7.20;;;2.15;;
18503;SDS011;9381;54.244;10.074;2024-03-25T13:34:20;10.05;;;2.08;;
18503;SDS011;9381;54.244;10.074;2024-03-25T13:39:20;8.77;;;2.37;;
18503;SDS011;9381;54.244;10.074;2024-03-25T13:44:21;12.43;;;2.50;;
18503;SDS011;9381;54.244;10.074;2024-03-25T13:49:21;12.03;;;2.20;;
18503;SDS011;9381;54.244;10.074;2024-03-25T13:54:24;7.23;;;1.90;;
18503;SDS011;9381;54.244;10.074;2024-03-25T13:59:27;7.30;;;2.03;;
18503;SDS011;9381;54.244;10.074;2024-03-25T14:04:27;7.17;;;1.80;;
18503;SDS011;9381;54.244;10.074;2024-03-25T14:09:27;7.37;;;1.83;;
18503;SDS011;9381;54.244;10.074;2024-03-25T14:14:28;7.47;;;1.83;;
18503;SDS011;9381;54.244;10.074;2024-03-25T14:19:28;6.60;;;1.57;;
18503;SDS011;9381;54.244;10.074;2024-03-25T14:24:29;3.80;;;1.50;;
18503;SDS011;9381;54.244;10.074;2024-03-25T14:29:29;6.50;;;1.87;;
18503;SDS011;9381;54.244;10.074;2024-03-25T14:34:29;4.17;;;1.20;;
18503;SDS011;9381;54.244;10.074;2024-03-25T14:39:30;5.80;;;1.70;;
18503;SDS011;9381;54.244;10.074;2024-03-25T14:44:31;4.50;;;1.40;;
18503;SDS011;9381;54.244;10.074;2024-03-25T14:49:31;7.17;;;2.30;;
18503;SDS011;9381;54.244;10.074;2024-03-25T14:54:35;5.40;;;1.60;;
18503;SDS011;9381;54.244;10.074;2024-03-25T14:59:37;6.53;;;1.83;;
18503;SDS011;9381;54.244;10.074;2024-03-25T15:04:37;6.77;;;2.00;;
18503;SDS011;9381;54.244;10.074;2024-03-25T15:09:37;5.70;;;1.50;;
18503;SDS011;9381;54.244;10.074;2024-03-25T15:14:38;10.77;;;1.63;;
18503;SDS011;9381;54.244;10.074;2024-03-25T15:19:38;5.17;;;1.90;;
18503;SDS011;9381;54.244;10.074;2024-03-25T15:24:38;7.78;;;1.92;;
18503;SDS011;9381;54.244;10.074;2024-03-25T15:29:39;6.30;;;2.00;;
18503;SDS011;9381;54.244;10.074;2024-03-25T15:34:39;6.70;;;1.80;;
18503;SDS011;9381;54.244;10.074;2024-03-25T15:39:40;5.40;;;1.95;;
18503;SDS011;9381;54.244;10.074;2024-03-25T15:44:40;5.37;;;1.70;;
18503;SDS011;9381;54.244;10.074;2024-03-25T15:49:44;7.83;;;2.50;;
18503;SDS011;9381;54.244;10.074;2024-03-25T15:54:46;10.23;;;2.27;;
18503;SDS011;9381;54.244;10.074;2024-03-25T15:59:51;9.23;;;3.27;;
18503;SDS011;9381;54.244;10.074;2024-03-25T16:04:51;5.93;;;2.00;;
18503;SDS011;9381;54.244;10.074;2024-03-25T16:09:51;12.10;;;2.47;;
18503;SDS011;9381;54.244;10.074;2024-03-25T16:14:52;4.83;;;2.00;;
18503;SDS011;9381;54.244;10.074;2024-03-25T16:19:54;7.30;;;1.80;;
18503;SDS011;9381;54.244;10.074;2024-03-25T16:24:54;4.17;;;1.80;;
18503;SDS011;9381;54.244;10.074;2024-03-25T16:29:55;9.80;;;2.10;;
18503;SDS011;9381;54.244;10.074;2024-03-25T16:34:55;7.20;;;2.55;;
18503;SDS011;9381;54.244;10.074;2024-03-25T16:39:55;6.10;;;1.98;;
18503;SDS011;9381;54.244;10.074;2024-03-25T16:44:56;8.73;;;2.13;;
18503;SDS011;9381;54.244;10.074;2024-03-25T16:49:59;6.50;;;2.20;;
18503;SDS011;9381;54.244;10.074;2024-03-25T16:55:00;8.32;;;2.00;;
18503;SDS011;9381;54.244;10.074;2024-03-25T17:00:00;7.07;;;2.77;;
18503;SDS011;9381;54.244;10.074;2024-03-25T17:05:00;9.33;;;3.83;;
18503;SDS011;9381;54.244;10.074;2024-03-25T17:10:02;8.80;;;3.70;;
18503;SDS011;9381;54.244;10.074;2024-03-25T17:15:04;8.73;;;2.57;;
18503;SDS011;9381;54.244;10.074;2024-03-25T17:20:05;9.23;;;2.40;;
18503;SDS011;9381;54.244;10.074;2024-03-25T17:25:10;7.50;;;2.30;;
18503;SDS011;9381;54.244;10.074;2024-03-25T17:30:11;7.40;;;2.27;;
18503;SDS011;9381;54.244;10.074;2024-03-25T17:35:12;8.20;;;2.30;;
18503;SDS011;9381;54.244;10.074;2024-03-25T17:40:12;4.10;;;1.70;;
18503;SDS011;9381;54.244;10.074;2024-03-25T17:45:13;9.43;;;1.90;;
18503;SDS011;9381;54.244;10.074;2024-03-25T17:50:13;6.85;;;2.25;;
18503;SDS011;9381;54.244;10.074;2024-03-25T17:55:15;6.27;;;2.20;;
18503;SDS011;9381;54.244;10.074;2024-03-25T18:00:17;6.00;;;2.13;;
18503;SDS011;9381;54.244;10.074;2024-03-25T18:05:17;6.13;;;2.10;;
18503;SDS011;9381;54.244;10.074;2024-03-25T18:10:17;4.25;;;1.77;;
18503;SDS011;9381;54.244;10.074;2024-03-25T18:15:18;5.60;;;2.22;;
18503;SDS011;9381;54.244;10.074;2024-03-25T18:20:18;7.17;;;2.50;;
18503;SDS011;9381;54.244;10.074;2024-03-25T18:25:18;7.20;;;2.53;;
18503;SDS011;9381;54.244;10.074;2024-03-25T18:30:19;8.50;;;2.80;;
18503;SDS011;9381;54.244;10.074;2024-03-25T18:35:19;6.57;;;2.33;;
18503;SDS011;9381;54.244;10.074;2024-03-25T18:40:20;17.60;;;7.70;;
18503;SDS011;9381;54.244;10.074;2024-03-25T18:45:21;10.67;;;3.23;;
18503;SDS011;9381;54.244;10.074;2024-03-25T18:50:21;10.90;;;3.20;;
18503;SDS011;9381;54.244;10.074;2024-03-25T18:55:22;6.37;;;2.80;;
18503;SDS011;9381;54.244;10.074;2024-03-25T19:00:22;6.77;;;2.60;;
18503;SDS011;9381;54.244;10.074;2024-03-25T19:05:24;10.20;;;2.90;;
18503;SDS011;9381;54.244;10.074;2024-03-25T19:10:24;7.27;;;2.40;;
18503;SDS011;9381;54.244;10.074;2024-03-25T19:15:24;6.90;;;2.80;;
18503;SDS011;9381;54.244;10.074;2024-03-25T19:20:25;12.93;;;2.85;;
18503;SDS011;9381;54.244;10.074;2024-03-25T19:25:25;5.93;;;2.50;;
18503;SDS011;9381;54.244;10.074;2024-03-25T19:30:27;11.33;;;4.10;;
18503;SDS011;9381;54.244;10.074;2024-03-25T19:35:27;15.07;;;6.30;;
18503;SDS011;9381;54.244;10.074;2024-03-25T19:40:28;14.90;;;5.77;;
18503;SDS011;9381;54.244;10.074;2024-03-25T19:45:28;12.60;;;6.30;;
18503;SDS011;9381;54.244;10.074;2024-03-25T19:50:29;9.40;;;4.63;;
18503;SDS011;9381;54.244;10.074;2024-03-25T19:55:31;9.27;;;4.63;;
18503;SDS011;9381;54.244;10.074;2024-03-25T20:00:31;12.13;;;5.30;;
18503;SDS011;9381;54.244;10.074;2024-03-25T20:05:32;21.80;;;8.67;;
18503;SDS011;9381;54.244;10.074;2024-03-25T20:10:33;26.73;;;10.80;;
18503;SDS011;9381;54.244;10.074;2024-03-25T20:15:33;19.50;;;9.60;;
18503;SDS011;9381;54.244;10.074;2024-03-25T20:20:34;19.80;;;6.83;;
18503;SDS011;9381;54.244;10.074;2024-03-25T20:25:37;14.87;;;5.60;;
18503;SDS011;9381;54.244;10.074;2024-03-25T20:30:38;8.60;;;3.37;;
18503;SDS011;9381;54.244;10.074;2024-03-25T20:35:39;6.80;;;3.40;;
18503;SDS011;9381;54.244;10.074;2024-03-25T20:40:39;11.63;;;4.72;;
18503;SDS011;9381;54.244;10.074;2024-03-25T20:45:39;23.67;;;11.63;;
18503;SDS011;9381;54.244;10.074;2024-03-25T20:50:40;19.60;;;10.93;;
18503;SDS011;9381;54.244;10.074;2024-03-25T20:55:40;33.27;;;15.33;;
18503;SDS011;9381;54.244;10.074;2024-03-25T21:00:41;20.40;;;9.60;;
18503;SDS011;9381;54.244;10.074;2024-03-25T21:05:52;9.30;;;4.70;;
18503;SDS011;9381;54.244;10.074;2024-03-25T21:10:55;8.93;;;3.13;;
18503;SDS011;9381;54.244;10.074;2024-03-25T21:15:56;7.32;;;3.15;;
18503;SDS011;9381;54.244;10.074;2024-03-25T21:20:56;8.90;;;3.97;;
18503;SDS011;9381;54.244;10.074;2024-03-25T21:25:56;6.00;;;3.65;;
18503;SDS011;9381;54.244;10.074;2024-03-25T21:30:57;9.90;;;3.57;;
18503;SDS011;9381;54.244;10.074;2024-03-25T21:35:57;8.40;;;3.35;;
18503;SDS011;9381;54.244;10.074;2024-03-25T21:40:57;10.87;;;4.30;;
18503;SDS011;9381;54.244;10.074;2024-03-25T21:45:58;8.68;;;5.03;;
18503;SDS011;9381;54.244;10.074;2024-03-25T21:50:58;10.13;;;3.60;;
18503;SDS011;9381;54.244;10.074;2024-03-25T21:55:59;9.37;;;4.47;;
18503;SDS011;9381;54.244;10.074;2024-03-25T22:01:01;8.93;;;4.27;;
18503;SDS011;9381;54.244;10.074;2024-03-25T22:06:01;8.60;;;3.87;;
18503;SDS011;9381;54.244;10.074;2024-03-25T22:11:02;10.43;;;4.40;;
18503;SDS011;9381;54.244;10.074;2024-03-25T22:16:02;8.93;;;3.77;;
18503;SDS011;9381;54.244;10.074;2024-03-25T22:21:04;8.83;;;3.70;;
18503;SDS011;9381;54.244;10.074;2024-03-25T22:26:04;6.60;;;3.20;;
18503;SDS011;9381;54.244;10.074;2024-03-25T22:31:05;5.15;;;3.50;;
18503;SDS011;9381;54.244;10.074;2024-03-25T22:36:05;4.40;;;2.97;;
18503;SDS011;9381;54.244;10.074;2024-03-25T22:41:06;9.60;;;3.60;;
18503;SDS011;9381;54.244;10.074;2024-03-25T22:46:06;6.45;;;3.08;;
18503;SDS011;9381;54.244;10.074;2024-03-25T22:51:06;10.57;;;3.77;;
18503;SDS011;9381;54.244;10.074;2024-03-25T22:56:07;8.77;;;3.63;;
18503;SDS011;9381;54.244;10.074;2024-03-25T23:01:09;9.17;;;3.90;;
18503;SDS011;9381;54.244;10.074;2024-03-25T23:06:13;7.20;;;4.17;;
18503;SDS011;9381;54.244;10.074;2024-03-25T23:11:13;7.22;;;3.50;;
18503;SDS011;9381;54.244;10.074;2024-03-25T23:16:13;7.13;;;3.40;;
18503;SDS011;9381;54.244;10.074;2024-03-25T23:21:14;9.30;;;4.10;;
18503;SDS011;9381;54.244;10.074;2024-03-25T23:26:14;10.13;;;4.33;;
18503;SDS011;9381;54.244;10.074;2024-03-25T23:31:15;8.00;;;4.07;;
18503;SDS011;9381;54.244;10.074;2024-03-25T23:36:15;10.23;;;3.93;;
18503;SDS011;9381;54.244;10.074;2024-03-25T23:41:15;9.70;;;4.00;;
18503;SDS011;9381;54.244;10.074;2024-03-25T23:46:16;7.03;;;3.37;;
18503;SDS011;9381;54.244;10.074;2024-03-25T23:51:17;8.53;;;3.83;;
18503;SDS011;9381;54.244;10.074;2024-03-25T23:56:18;7.57;;;3.50;;
